< < Back
Terminal Aerodrome Forecast


Current Version              Previous Versions:   1  2  3  4  5  6  7  8  9  

Terminal Aerodrome Forecast

727
FTAK31 PAJN 241131
TAFAGS
TAF
PAGS 241131Z 2412/2512 12011KT P6SM -SHRA SCT020 OVC035
      TEMPO 2412/2416 4SM SHRA SCT008 OVC020
     FM241800 15010G18KT 6SM -SHRA BR SCT012 BKN025 OVC035
     FM250300 13007KT P6SM -SHRA SCT015 OVC035
      AMD LTD TO CLD VIS AND WIND=



Latest METAR

960
SAUS70 KWBC 241400 RRK
MTRAGS
METAR KAGS 241353Z 21005KT 10SM CLR 30/22 A3003 RMK AO2 SLP168
T03000217


USA.gov is the U.S. government's official web portal to all federal, state and local government web resources and services.